Weather observations for the past three days for
Sanford, Sanford-Lee County Regional Airport
Imperial (Metric)
Date Time (edt) Wind (mph) Vis. (mi.) Weather Sky Cond. Temperature (ºF) Relative Humidity Wind Chill (°F) Heat Index (°F) Pressure Precipitation (in)
Air Dwpt 6 hour altimeter (in) sea level (mb) 1 hr 3 hr 6 hr
Max. Min.
06 08:35 S 5 10.00 Fair CLR 64.4 54.5 70% 29.97 0.0
06 08:15 S 5 10.00 Fair CLR 63.9 54.7 72% 29.97 0.0
06 07:55 S 6 10.00 Fair CLR 63.3 54.7 63.5 59.4 74% 29.96 0.0
06 07:35 S 5 10.00 Fair CLR 62.8 54.5 75% 29.96 0.0
06 07:15 S 6 10.00 Fair CLR 61.5 54.1 77% 29.96 0.0
06 06:55 S 6 10.00 Fair CLR 60.8 53.6 77% 29.96 0.0
06 06:35 S 5 10.00 Partly Cloudy SCT110 60.6 53.6 78% 29.96 0.0
06 06:15 S 5 10.00 Mostly Cloudy BKN100 60.8 53.6 77% 29.96 0.0
06 05:55 Calm 10.00 Overcast OVC100 61 54 78% 29.97 0.0
06 05:35 S 3 10.00 Mostly Cloudy BKN100 60.4 54 79% 29.97 0.0
06 05:15 S 5 10.00 Fair CLR 59.9 54 81% 29.97 0.0
06 04:55 SW 5 10.00 Fair CLR 60.3 54.1 80% 29.98 0.0
06 04:35 S 5 10.00 Fair CLR 59.9 54.5 82% 29.97 0.0
06 04:15 SW 3 10.00 Fair CLR 59.5 54.1 82% 29.98 0.0
06 03:55 Calm 10.00 Fair CLR 59.7 54 81% 29.97 0.0
06 03:35 S 3 10.00 Fair CLR 59.9 53.8 80% 29.97 0.0
06 03:15 SW 3 10.00 Fair CLR 61 54.1 78% 29.98 0.0
06 02:55 SW 5 10.00 Fair CLR 61.5 54.1 77% 29.97 0.0
06 02:35 SW 5 10.00 Fair CLR 61.9 54.1 76% 29.98 0.0
06 02:15 S 6 10.00 Fair CLR 62.1 54.1 75% 29.99 0.0
06 01:55 S 8 10.00 Fair CLR 62.6 54.3 74.3 62.2 75% 29.99 0.0
06 01:35 SW 6 10.00 Fair CLR 63.3 54.1 72% 29.99 0.0
06 01:15 SW 7 10.00 Fair CLR 63.5 54.1 72% 29.99 0.0
06 00:55 S 9 10.00 Fair CLR 63.9 54.1 71% 30 0.0
06 00:35 S 9 10.00 Fair CLR 64.4 54 69% 30 0.0
06 00:15 S 12 G 17 10.00 Fair CLR 64.8 54 68% 29.99 0.0
05 23:55 S 10 G 18 10.00 Fair CLR 65.3 53.8 66% 30 0.0
05 23:35 S 7 10.00 Fair CLR 65.5 53.6 66% 29.99 0.0
05 23:15 S 9 G 17 10.00 Fair CLR 66.2 53.2 63% 30 0.0
05 22:55 S 9 10.00 Fair CLR 66.6 53.2 62% 30.01 0.0
05 22:35 S 10 10.00 Fair CLR 67.5 53.1 60% 30 0.0
05 22:15 S 10 G 16 10.00 Fair CLR 68.4 53.1 58% 30 0.0
05 21:55 S 10 10.00 Fair CLR 69.3 53.2 57% 29.99 0.0
05 21:35 S 8 10.00 Fair CLR 69.8 52.9 55% 29.98 0.0
05 21:15 S 8 10.00 Fair CLR 70.5 52.3 53% 29.98 0.0
05 20:55 S 7 10.00 Fair CLR 71.6 51.8 50% 29.97 0.0
05 20:35 S 9 10.00 Fair CLR 72 50.2 46% 29.96 0.0
05 20:15 S 6 10.00 Fair CLR 72.7 48.2 42% 29.96 0.0
05 19:55 S 8 10.00 Fair CLR 74.3 48.4 81.7 74.3 40% 29.95 0.0
05 19:35 S 7 10.00 Fair CLR 75.4 48.9 39% 78 29.95 0.0
05 19:15 S 10 G 17 10.00 Partly Cloudy SCT075 76.6 48.6 37% 78 29.94 0.0
05 18:55 S 9 10.00 Partly Cloudy SCT075 77.7 49.1 37% 78 29.95 0.0
05 18:35 S 16 G 20 10.00 Partly Cloudy SCT075 78.1 48.9 36% 79 29.95 0.0
05 18:15 S 14 10.00 Partly Cloudy SCT075 79.3 48.6 34% 79 29.96 0.0
05 17:55 S 10 G 18 10.00 Partly Cloudy SCT075 79.9 48.2 33% 79 29.96 0.0
05 17:35 S 10 G 22 10.00 Partly Cloudy SCT075 80.4 48.4 33% 80 29.96 0.0
05 17:15 S 13 G 17 10.00 Fair CLR 80.2 47.8 32% 79 29.96 0.0
05 16:55 S 14 G 22 10.00 Fair CLR 80.2 48 32% 79 29.96 0.0
05 16:35 S 12 G 22 10.00 Fair CLR 80.8 48.4 32% 80 29.96 0.0
05 16:15 S 10 G 17 10.00 Fair CLR 81 48.6 32% 80 29.97 0.0
05 15:55 S 10 10.00 Fair CLR 80.1 47.7 32% 79 29.97 0.0
05 15:35 S 10 G 18 10.00 Partly Cloudy SCT070 80.4 47.1 31% 80 29.99 0.0
05 15:15 SW 10 G 21 10.00 Partly Cloudy SCT070 80.6 47.7 32% 80 30 0.0
05 14:55 SW 12 G 18 10.00 Partly Cloudy SCT070 79.9 47.5 32% 79 30.01 0.0
05 14:35 SW 9 G 18 10.00 Partly Cloudy SCT070 80.1 48.2 33% 79 30.01 0.0
05 14:15 SW 12 G 16 10.00 Partly Cloudy SCT070 80.4 49.6 34% 80 30.01 0.0
05 13:55 SW 13 G 17 10.00 Partly Cloudy SCT060 80.2 49.6 80.2 55.6 34% 80 30.01 0.0
05 13:35 SW 10 G 18 10.00 Partly Cloudy SCT060 79 49.3 35% 79 30.02 0.0
05 13:15 S 13 G 18 10.00 Partly Cloudy SCT060 78.8 48.2 34% 79 30.03 0.0
05 12:55 S 10 G 18 10.00 Fair CLR 77.9 48.4 35% 78 30.03 0.0
05 12:35 S 10 G 16 10.00 Fair CLR 76.5 49.3 38% 78 30.04 0.0
05 12:15 S 8 10.00 Fair CLR 75.7 52.2 44% 78 30.04 0.0
05 11:55 S 9 10.00 Fair CLR 74.3 51.6 45% 30.05 0.0
05 11:35 S 7 10.00 Fair CLR 73.9 53.2 49% 30.05 0.0
05 11:15 SW 7 10.00 Fair CLR 73 53.1 50% 30.05 0.0
05 10:55 SW 8 10.00 Fair CLR 71.4 52.5 51% 30.06 0.0
05 10:35 SW 9 10.00 Fair CLR 70.3 52.5 53% 30.06 0.0
05 10:15 W 9 10.00 Fair CLR 68.9 52 55% 30.06 0.0
05 09:55 SW 7 10.00 Partly Cloudy SCT002 67.5 52 58% 30.06 0.0
05 09:35 SW 9 10.00 Fair CLR 66.9 52 59% 30.05 0.0
05 09:15 SW 7 10.00 Fair CLR 65.1 51.8 62% 30.05 0.0
05 08:55 SW 5 10.00 Fair CLR 63.1 50.9 65% 30.05 0.0
05 08:35 SW 5 10.00 Fair CLR 62.4 51.4 67% 30.06 0.0
05 08:15 S 3 10.00 Fair CLR 58.5 50.7 76% 30.06 0.0
05 07:55 Calm 10.00 Fair CLR 55 49.8 61.3 45.1 83% 30.06 0.0
05 07:35 Calm 10.00 Fair CLR 50.5 49.5 96% 30.05 0.0
05 07:15 Calm 10.00 Fair CLR 47.8 47.8 100% 30.04 0.0
05 06:55 Calm 10.00 Fair CLR 47.1 47.1 100% 30.04 0.0
05 06:35 Calm 5.00 Fog/Mist CLR 45.7 44.8 97% 30.03 0.0
05 06:15 Calm 10.00 Fair CLR 48 46.6 95% 30.02 0.0
05 05:55 Calm 10.00 Fair CLR 47.8 47.3 98% 30.02 0.0
05 05:35 Calm 10.00 Fair CLR 47.8 46.8 96% 30.01 0.0
05 05:15 Calm 10.00 Fair CLR 49.5 46.4 89% 30.01 0.0
05 04:55 Calm 10.00 Fair CLR 50.7 45.9 84% 30.01 0.0
05 04:35 Calm 10.00 Fair CLR 50.5 46.4 86% 30.01 0.0
05 04:15 Calm 10.00 Fair CLR 52.2 46.2 80% 30.01 0.0
05 03:55 Calm 10.00 Fair CLR 54.9 47.3 76% 30 0.0
05 03:35 Calm 10.00 Fair CLR 57.4 46.4 67% 30 0.0
05 03:15 SW 3 10.00 Fair CLR 57.6 46.6 67% 30 0.0
05 02:55 SW 5 10.00 Fair CLR 59.2 46.9 64% 30 0.0
05 02:35 SW 6 10.00 Fair CLR 59.9 47.3 63% 29.99 0.0
05 02:15 SW 6 10.00 Fair CLR 60.3 47.3 62% 29.99 0.0
05 01:55 SW 6 10.00 Fair CLR 61.2 47.7 72.1 61.2 61% 30 0.0
05 01:35 SW 7 10.00 Fair CLR 61.3 47.8 61% 30 0.0
05 01:15 SW 8 10.00 Fair CLR 62.1 47.8 60% 30 0.0
05 00:55 SW 8 10.00 Fair CLR 62.4 48.2 60% 30.01 0.0
05 00:35 SW 10 10.00 Fair CLR 62.6 48.2 60% 30 0.0
05 00:15 SW 9 10.00 Fair CLR 63 48.2 59% 30 0.0
04 23:55 SW 9 10.00 Fair CLR 63.5 48.2 58% 30.01 0.0
04 23:35 S 9 10.00 Fair CLR 64 48.2 57% 30 0.0
04 23:15 S 9 G 18 10.00 Fair CLR 64.9 48.4 55% 30 0.0
04 22:55 S 8 10.00 Fair CLR 65.5 48.6 55% 30 0.0
04 22:35 S 10 G 20 10.00 Fair CLR 66.2 48.2 52% 30 0.0
04 22:15 S 9 10.00 Fair CLR 66.6 46.9 49% 29.99 0.0
04 21:55 S 7 10.00 Fair CLR 64.9 43.3 46% 29.99 0.0
04 21:35 S 6 10.00 Fair CLR 64 43 46% 29.98 0.0
04 21:15 S 5 10.00 Fair CLR 65.5 42.8 44% 29.97 0.0
04 20:55 S 5 10.00 Fair CLR 67.3 42.3 40% 29.97 0.0
04 20:35 S 6 10.00 Fair CLR 69.1 41.9 37% 29.96 0.0
04 20:15 S 6 10.00 Fair CLR 69.8 41.7 36% 29.96 0.0
04 19:55 S 7 10.00 Fair CLR 72.1 41.4 79.9 72.1 33% 29.95 0.0
04 19:35 S 7 10.00 Fair CLR 74.3 40.3 29% 29.94 0.0
04 19:15 S 6 10.00 Fair CLR 76.3 38.7 26% 77 29.94 0.0
04 18:55 SW 7 10.00 Fair CLR 77.9 37.4 23% 78 29.93 0.0
04 18:35 S 10 10.00 Fair CLR 78.6 37.6 23% 78 29.93 0.0
04 18:15 S 8 10.00 Fair CLR 79 37.4 22% 78 29.93 0.0
04 17:55 SW 10 10.00 Fair CLR 79.7 37.4 22% 79 29.93 0.0
04 17:35 S 9 10.00 Fair CLR 79.7 38.1 23% 79 29.93 0.0
04 17:15 SW 10 10.00 Fair CLR 79.5 38.5 23% 78 29.94 0.0
04 16:55 S 5 10.00 Fair CLR 79.2 36.9 22% 78 29.94 0.0
04 16:35 SW 8 G 16 10.00 Fair CLR 79.2 37.8 23% 78 29.95 0.0
04 16:15 SW 10 10.00 Fair CLR 78.6 38.1 23% 78 29.96 0.0
04 15:55 SW 9 10.00 Fair CLR 79.2 38.5 23% 78 29.96 0.0
04 15:35 S 10 G 18 10.00 Fair CLR 79 38.5 23% 78 29.96 0.0
04 15:15 S 8 10.00 Fair CLR 78.1 38.5 24% 78 29.96 0.0
04 14:55 SW 12 10.00 Fair CLR 77.9 39 25% 78 29.98 0.0
04 14:35 SW 8 10.00 Fair CLR 77.4 39.2 25% 78 29.98 0.0
04 14:15 S 10 10.00 Fair CLR 76.8 38.3 25% 77 29.99 0.0
04 13:55 W 10 10.00 Fair CLR 76.3 38.3 76.6 44.6 25% 77 29.99 0.0
04 13:35 SW 9 10.00 Fair CLR 74.8 37.8 26% 30 0.0
04 13:15 W 6 G 16 10.00 Fair CLR 74.1 38.5 28% 30.01 0.0
04 12:55 W 10 G 17 10.00 Fair CLR 73.6 40.8 31% 30.02 0.0
04 12:35 W 12 G 20 10.00 Fair CLR 72.3 41.2 33% 30.03 0.0
04 12:15 W 8 10.00 Partly Cloudy SCT001 71.1 43.2 37% 30.04 0.0
04 11:55 W 8 10.00 Fair CLR 70.3 43.5 38% 30.04 0.0
04 11:35 W 6 10.00 Fair CLR 68.9 43.7 40% 30.04 0.0
04 11:15 SW 5 10.00 Fair CLR 68 44.1 42% 30.04 0.0
04 10:55 SW 5 10.00 Partly Cloudy SCT001 65.5 43.2 44% 30.04 0.0
04 10:35 SW 5 10.00 Partly Cloudy SCT001 63.1 45.7 53% 30.05 0.0
04 10:15 SW 8 10.00 Fair CLR 61.9 45.7 56% 30.05 0.0
04 09:55 SW 6 10.00 Fair CLR 59.9 45.9 60% 30.06 0.0
04 09:35 W 3 10.00 Fair CLR 58.5 46.2 64% 30.06 0.0
04 09:15 SW 5 10.00 Fair CLR 56.5 46.9 71% 30.06 0.0
04 08:55 Calm 10.00 Fair CLR 54 46.9 77% 30.06 0.0
04 08:35 Calm 10.00 Fair CLR 50.9 46.4 85% 30.06 0.0
04 08:15 Calm 10.00 Fair CLR 47.1 44.4 90% 30.06 0.0
04 07:55 Calm 10.00 Fair CLR 44.2 42.8 44.2 35.8 95% 30.06 0.0
04 07:35 Calm 10.00 Fair CLR 41 40.6 99% 30.06 0.0
04 07:15 Calm 10.00 Fair CLR 38.3 38.3 100% 30.06 0.0
04 06:55 Calm 10.00 Fair CLR 37.4 37.4 100% 30.06 0.0
04 06:35 Calm 10.00 Fair CLR 36.9 36.9 100% 30.06 0.0
04 06:15 Calm 10.00 Fair CLR 36.7 36.7 100% 30.06 0.0
04 05:55 Calm 10.00 Fair CLR 36.9 36.9 100% 30.06 0.0
04 05:35 Calm 10.00 Fair CLR 37.2 37.2 100% 30.06 0.0
04 05:15 Calm 10.00 Fair CLR 37.2 36.9 99% 30.05 0.0
04 04:55 Calm 10.00 Fair CLR 37.4 37.4 100% 30.05 0.0
04 04:35 Calm 10.00 Fair CLR 37 37 100% 30.06 0.0
04 04:15 Calm 10.00 Fair CLR 36.9 36.9 100% 30.06 0.0
04 03:55 Calm 10.00 Fair CLR 37.4 37.4 100% 30.05 0.0
04 03:35 Calm 10.00 Fair CLR 36.9 36.9 100% 30.05 0.0
04 03:15 Calm 10.00 Fair CLR 36.7 36.7 100% 30.05 0.0
04 02:55 Calm 10.00 Fair CLR 37.2 37 99% 30.06 0.0
04 02:15 Calm 10.00 Fair CLR 38.3 38.3 100% 30.06 0.0
04 01:55 Calm 10.00 Fair CLR 36.7 36.7 57.4 36.7 100% 30.05 0.0
04 01:35 Calm 10.00 Fair CLR 38.3 38.3 100% 30.06 0.0
04 01:15 Calm 10.00 Fair CLR 38.7 38.7 100% 30.06 0.0
04 00:55 Calm 10.00 Fair CLR 38.7 38.7 100% 30.06 0.0
04 00:35 Calm 10.00 Fair CLR 40.1 39.9 99% 30.06 0.0
04 00:15 Calm 10.00 Fair CLR 38.7 38.7 100% 30.06 0.0
03 23:55 Calm 10.00 Fair CLR 39.6 37.9 94% 30.07 0.0
03 23:35 Calm 10.00 Fair CLR 41.9 39.9 93% 30.06 0.0
03 23:15 Calm 10.00 Fair CLR 40.3 39.6 97% 30.06 0.0
03 22:55 Calm 10.00 Fair CLR 41 39.4 94% 30.06 0.0
03 22:35 Calm 10.00 Fair CLR 42.6 39.9 90% 30.06 0.0
03 22:15 Calm 10.00 Fair CLR 43.2 40.5 90% 30.06 0.0
03 21:55 Calm 10.00 Fair CLR 44.6 39.2 81% 30.05 0.0
03 21:35 Calm 10.00 Fair CLR 44.2 38.7 81% 30.05 0.0
03 21:15 Calm 10.00 Fair CLR 47.5 38.8 72% 30.04 0.0
03 20:55 Calm 10.00 Fair CLR 47.8 40.1 75% 30.04 0.0
03 20:35 Calm 10.00 Fair CLR 50 39.2 67% 30.03 0.0
03 20:15 Calm 10.00 Fair CLR 53.4 38.5 57% 30.02 0.0
03 19:55 Calm 10.00 Fair CLR 57.2 37 67.6 57.2 47% 30.02 0.0
03 19:35 NW 3 10.00 Fair CLR 64.4 28 25% 30.02 0.0
03 19:15 Calm 10.00 Fair CLR 65.1 26.8 23% 30.02 0.0
03 18:55 NW 5 10.00 Fair CLR 65.7 25.9 22% 30.02 0.0
03 18:35 NW 7 10.00 Fair CLR 66 25.3 21% 30.02 0.0
03 18:15 Calm 10.00 Fair CLR 65.7 25.7 22% 30.02 0.0
03 17:55 W 6 10.00 Fair CLR 66.2 26.2 22% 30.02 0.0
03 17:35 NW 10 10.00 Fair CLR 66.7 26.8 22% 30.02 0.0
03 17:15 W 8 10.00 Fair CLR 66.9 25.3 21% 30.02 0.0
03 16:55 NW 8 10.00 Fair CLR 66.4 24.6 21% 30.02 0.0
03 16:35 W 9 10.00 Fair CLR 66.6 24.3 20% 30.03 0.0
03 16:15 NW 14 G 18 10.00 Fair CLR 66 25.5 22% 30.03 0.0
03 15:55 SW 5 G 10 10.00 Fair CLR 65.1 24.8 22% 30.05 0.0
03 15:35 W 9 10.00 Fair CLR 65.5 24.3 21% 30.05 0.0
03 15:15 W 3 G 17 10.00 Fair CLR 64.6 23 20% 30.06 0.0
03 14:55 W 6 10.00 Fair CLR 65.1 24.6 21% 30.06 0.0
03 14:35 W 8 G 17 10.00 Fair CLR 64 26.6 24% 30.07 0.0
03 14:15 W 12 10.00 Fair CLR 63 27.1 26% 30.07 0.0
03 13:55 NW 6 G 16 10.00 Fair CLR 62.6 28.4 63.1 45 27% 30.09 0.0
03 13:35 N 7 10.00 Fair CLR 61.9 28.4 28% 30.09 0.0
03 13:15 W 10 10.00 Fair CLR 62.1 28.2 28% 30.1 0.0
03 12:55 W 10 10.00 Fair CLR 61.2 29.3 30% 30.1 0.0
03 12:35 NW 10 10.00 Fair CLR 59.7 29.1 31% 30.12 0.0
03 12:15 NW 13 10.00 Fair CLR 58.8 28.9 32% 30.12 0.0
03 11:55 NW 6 10.00 Fair CLR 58.1 29.7 34% 30.13 0.0
03 11:35 NW 10 10.00 Fair CLR 57.4 30 35% 30.13 0.0
03 11:15 NW 12 G 18 10.00 Fair CLR 57.2 30.7 37% 30.13 0.0
03 10:55 NW 14 G 18 10.00 Fair CLR 56.5 30.9 38% 30.13 0.0
03 10:35 NW 12 10.00 Fair CLR 55.6 30.7 39% 30.13 0.0
03 10:15 N 9 10.00 Fair CLR 55.2 31.8 41% 30.13 0.0
03 09:55 N 9 10.00 Fair CLR 54.3 32.4 43% 30.13 0.0
03 09:35 NW 9 10.00 Fair CLR 53.1 32.5 46% 30.13 0.0
03 09:15 NW 10 10.00 Fair CLR 51.8 33.3 49% 30.13 0.0
03 08:55 NW 6 10.00 Fair CLR 49.5 35.4 59% 48 30.13 0.0
Date Time (edt) Wind (mph) Vis. (mi.) Weather Sky Cond. Air Dwpt Max. Min. Relative Humidity Wind Chill (°F) Heat Index (°F) altimeter (in) sea level (mb) 1 hr 3 hr 6 hr
6 hour
Temperature (ºF) Pressure Precipitation (in)